sensor_id;sensor_type;location;lat;lon;timestamp;temperature;humidity
7720;DHT22;3902;49.474;8.616;2023-04-03T00:02:15;7.10;99.90
7720;DHT22;3902;49.474;8.616;2023-04-03T00:04:40;7.10;99.90
7720;DHT22;3902;49.474;8.616;2023-04-03T00:07:06;7.10;99.90
7720;DHT22;3902;49.474;8.616;2023-04-03T00:09:31;7.10;99.90
7720;DHT22;3902;49.474;8.616;2023-04-03T00:11:57;7.10;99.90
7720;DHT22;3902;49.474;8.616;2023-04-03T00:14:22;7.10;99.90
7720;DHT22;3902;49.474;8.616;2023-04-03T00:16:48;7.00;99.90
7720;DHT22;3902;49.474;8.616;2023-04-03T00:19:13;6.90;99.90
7720;DHT22;3902;49.474;8.616;2023-04-03T00:21:39;6.90;99.90
7720;DHT22;3902;49.474;8.616;2023-04-03T00:24:05;6.90;99.90
7720;DHT22;3902;49.474;8.616;2023-04-03T00:26:31;6.90;99.90
7720;DHT22;3902;49.474;8.616;2023-04-03T00:28:56;6.90;99.90
7720;DHT22;3902;49.474;8.616;2023-04-03T00:31:22;6.80;99.90
7720;DHT22;3902;49.474;8.616;2023-04-03T00:33:47;6.80;99.90
7720;DHT22;3902;49.474;8.616;2023-04-03T00:36:13;6.80;99.90
7720;DHT22;3902;49.474;8.616;2023-04-03T00:38:39;6.70;99.90
7720;DHT22;3902;49.474;8.616;2023-04-03T00:41:04;6.70;99.90
7720;DHT22;3902;49.474;8.616;2023-04-03T00:43:30;6.60;99.90
7720;DHT22;3902;49.474;8.616;2023-04-03T00:45:57;6.60;99.90
7720;DHT22;3902;49.474;8.616;2023-04-03T00:48:39;6.60;99.90
7720;DHT22;3902;49.474;8.616;2023-04-03T00:51:08;6.50;99.90
7720;DHT22;3902;49.474;8.616;2023-04-03T00:53:42;6.60;99.90
7720;DHT22;3902;49.474;8.616;2023-04-03T00:56:10;6.50;99.90
7720;DHT22;3902;49.474;8.616;2023-04-03T00:58:41;6.40;99.90
7720;DHT22;3902;49.474;8.616;2023-04-03T01:01:11;6.40;99.90
7720;DHT22;3902;49.474;8.616;2023-04-03T01:03:37;6.40;99.90
7720;DHT22;3902;49.474;8.616;2023-04-03T01:06:03;6.30;99.90
7720;DHT22;3902;49.474;8.616;2023-04-03T01:08:29;6.30;99.90
7720;DHT22;3902;49.474;8.616;2023-04-03T01:10:55;6.30;99.90
7720;DHT22;3902;49.474;8.616;2023-04-03T01:13:29;6.20;99.90
7720;DHT22;3902;49.474;8.616;2023-04-03T01:15:55;6.20;99.90
7720;DHT22;3902;49.474;8.616;2023-04-03T01:18:24;6.10;99.90
7720;DHT22;3902;49.474;8.616;2023-04-03T01:23:41;6.10;99.90
7720;DHT22;3902;49.474;8.616;2023-04-03T01:26:09;6.00;99.90
7720;DHT22;3902;49.474;8.616;2023-04-03T01:28:37;6.00;99.90
7720;DHT22;3902;49.474;8.616;2023-04-03T01:33:47;6.00;99.90
7720;DHT22;3902;49.474;8.616;2023-04-03T01:36:23;5.90;99.90
7720;DHT22;3902;49.474;8.616;2023-04-03T01:38:50;5.90;99.90
7720;DHT22;3902;49.474;8.616;2023-04-03T01:41:15;5.90;99.90
7720;DHT22;3902;49.474;8.616;2023-04-03T01:43:41;5.80;99.90
7720;DHT22;3902;49.474;8.616;2023-04-03T01:46:06;5.80;99.90
7720;DHT22;3902;49.474;8.616;2023-04-03T01:48:33;5.80;99.90
7720;DHT22;3902;49.474;8.616;2023-04-03T01:50:58;5.80;99.90
7720;DHT22;3902;49.474;8.616;2023-04-03T01:53:24;5.70;99.90
7720;DHT22;3902;49.474;8.616;2023-04-03T01:55:50;5.70;99.90
7720;DHT22;3902;49.474;8.616;2023-04-03T01:58:15;5.60;99.90
7720;DHT22;3902;49.474;8.616;2023-04-03T02:00:41;5.60;99.90
7720;DHT22;3902;49.474;8.616;2023-04-03T02:03:06;5.60;99.90
7720;DHT22;3902;49.474;8.616;2023-04-03T02:05:32;5.50;99.90
7720;DHT22;3902;49.474;8.616;2023-04-03T02:07:58;5.50;99.90
7720;DHT22;3902;49.474;8.616;2023-04-03T02:10:23;5.50;99.90
7720;DHT22;3902;49.474;8.616;2023-04-03T02:12:49;5.40;99.90
7720;DHT22;3902;49.474;8.616;2023-04-03T02:15:15;5.40;99.90
7720;DHT22;3902;49.474;8.616;2023-04-03T02:17:40;5.50;99.90
7720;DHT22;3902;49.474;8.616;2023-04-03T02:20:06;5.40;99.90
7720;DHT22;3902;49.474;8.616;2023-04-03T02:22:32;5.40;99.90
7720;DHT22;3902;49.474;8.616;2023-04-03T02:24:57;5.40;99.90
7720;DHT22;3902;49.474;8.616;2023-04-03T02:27:23;5.30;99.90
7720;DHT22;3902;49.474;8.616;2023-04-03T02:29:49;5.40;99.90
7720;DHT22;3902;49.474;8.616;2023-04-03T02:32:14;5.40;99.90
7720;DHT22;3902;49.474;8.616;2023-04-03T02:34:40;5.40;99.90
7720;DHT22;3902;49.474;8.616;2023-04-03T02:37:05;5.30;99.90
7720;DHT22;3902;49.474;8.616;2023-04-03T02:39:34;5.40;99.90
7720;DHT22;3902;49.474;8.616;2023-04-03T02:42:00;5.40;99.90
7720;DHT22;3902;49.474;8.616;2023-04-03T02:44:25;5.40;99.90
7720;DHT22;3902;49.474;8.616;2023-04-03T02:46:51;5.30;99.90
7720;DHT22;3902;49.474;8.616;2023-04-03T02:49:17;5.30;99.90
7720;DHT22;3902;49.474;8.616;2023-04-03T02:51:42;5.30;99.90
7720;DHT22;3902;49.474;8.616;2023-04-03T02:54:08;5.30;99.90
7720;DHT22;3902;49.474;8.616;2023-04-03T02:56:34;5.30;99.90
7720;DHT22;3902;49.474;8.616;2023-04-03T02:59:00;5.30;99.90
7720;DHT22;3902;49.474;8.616;2023-04-03T03:01:25;5.30;99.90
7720;DHT22;3902;49.474;8.616;2023-04-03T03:03:54;5.30;99.90
7720;DHT22;3902;49.474;8.616;2023-04-03T03:06:19;5.30;99.90
7720;DHT22;3902;49.474;8.616;2023-04-03T03:08:45;5.30;99.90
7720;DHT22;3902;49.474;8.616;2023-04-03T03:11:11;5.30;99.90
7720;DHT22;3902;49.474;8.616;2023-04-03T03:13:37;5.20;99.90
7720;DHT22;3902;49.474;8.616;2023-04-03T03:16:03;5.20;99.90
7720;DHT22;3902;49.474;8.616;2023-04-03T03:18:29;5.20;99.90
7720;DHT22;3902;49.474;8.616;2023-04-03T03:20:58;5.20;99.90
7720;DHT22;3902;49.474;8.616;2023-04-03T03:23:25;5.20;99.90
7720;DHT22;3902;49.474;8.616;2023-04-03T03:26:00;5.20;99.90
7720;DHT22;3902;49.474;8.616;2023-04-03T03:28:26;5.20;99.90
7720;DHT22;3902;49.474;8.616;2023-04-03T03:30:52;5.10;99.90
7720;DHT22;3902;49.474;8.616;2023-04-03T03:33:17;5.20;99.90
7720;DHT22;3902;49.474;8.616;2023-04-03T03:35:43;5.10;99.90
7720;DHT22;3902;49.474;8.616;2023-04-03T03:38:09;5.10;99.90
7720;DHT22;3902;49.474;8.616;2023-04-03T03:40:35;5.10;99.90
7720;DHT22;3902;49.474;8.616;2023-04-03T03:43:00;5.10;99.90
7720;DHT22;3902;49.474;8.616;2023-04-03T03:45:26;5.10;99.90
7720;DHT22;3902;49.474;8.616;2023-04-03T03:47:52;5.10;99.90
7720;DHT22;3902;49.474;8.616;2023-04-03T03:50:17;5.10;99.90
7720;DHT22;3902;49.474;8.616;2023-04-03T03:52:43;5.10;99.90
7720;DHT22;3902;49.474;8.616;2023-04-03T03:55:08;5.00;99.90
7720;DHT22;3902;49.474;8.616;2023-04-03T03:57:34;5.00;99.90
7720;DHT22;3902;49.474;8.616;2023-04-03T03:59:59;5.00;99.90
7720;DHT22;3902;49.474;8.616;2023-04-03T04:02:25;5.00;99.90
7720;DHT22;3902;49.474;8.616;2023-04-03T04:04:50;5.00;99.90
7720;DHT22;3902;49.474;8.616;2023-04-03T04:07:16;5.00;99.90
7720;DHT22;3902;49.474;8.616;2023-04-03T04:09:41;5.00;99.90
7720;DHT22;3902;49.474;8.616;2023-04-03T04:12:07;4.90;99.90
7720;DHT22;3902;49.474;8.616;2023-04-03T04:14:32;4.90;99.90
7720;DHT22;3902;49.474;8.616;2023-04-03T04:16:58;4.80;99.90
7720;DHT22;3902;49.474;8.616;2023-04-03T04:19:23;4.90;99.90
7720;DHT22;3902;49.474;8.616;2023-04-03T04:21:49;4.80;99.90
7720;DHT22;3902;49.474;8.616;2023-04-03T04:24:15;4.80;99.90
7720;DHT22;3902;49.474;8.616;2023-04-03T04:26:40;4.80;99.90
7720;DHT22;3902;49.474;8.616;2023-04-03T04:29:06;4.80;99.90
7720;DHT22;3902;49.474;8.616;2023-04-03T04:31:31;4.80;99.90
7720;DHT22;3902;49.474;8.616;2023-04-03T04:33:57;4.80;99.90
7720;DHT22;3902;49.474;8.616;2023-04-03T04:36:22;4.80;99.90
7720;DHT22;3902;49.474;8.616;2023-04-03T04:38:48;4.80;99.90
7720;DHT22;3902;49.474;8.616;2023-04-03T04:41:13;4.80;99.90
7720;DHT22;3902;49.474;8.616;2023-04-03T04:43:39;4.80;99.90
7720;DHT22;3902;49.474;8.616;2023-04-03T04:46:09;4.80;99.90
7720;DHT22;3902;49.474;8.616;2023-04-03T04:48:36;4.80;99.90
7720;DHT22;3902;49.474;8.616;2023-04-03T04:51:02;4.80;99.90
7720;DHT22;3902;49.474;8.616;2023-04-03T04:53:28;4.80;99.90
7720;DHT22;3902;49.474;8.616;2023-04-03T04:55:53;4.80;99.90
7720;DHT22;3902;49.474;8.616;2023-04-03T04:58:20;4.80;99.90
7720;DHT22;3902;49.474;8.616;2023-04-03T05:00:46;4.70;99.90
7720;DHT22;3902;49.474;8.616;2023-04-03T05:03:11;4.70;99.90
7720;DHT22;3902;49.474;8.616;2023-04-03T05:05:37;4.80;99.90
7720;DHT22;3902;49.474;8.616;2023-04-03T05:08:04;4.70;99.90
7720;DHT22;3902;49.474;8.616;2023-04-03T05:10:30;4.70;99.90
7720;DHT22;3902;49.474;8.616;2023-04-03T05:12:56;4.70;99.90
7720;DHT22;3902;49.474;8.616;2023-04-03T05:15:22;4.70;99.90
7720;DHT22;3902;49.474;8.616;2023-04-03T05:17:47;4.70;99.90
7720;DHT22;3902;49.474;8.616;2023-04-03T05:20:13;4.70;99.90
7720;DHT22;3902;49.474;8.616;2023-04-03T05:22:39;4.60;99.90
7720;DHT22;3902;49.474;8.616;2023-04-03T05:25:05;4.60;99.90
7720;DHT22;3902;49.474;8.616;2023-04-03T05:27:30;4.60;99.90
7720;DHT22;3902;49.474;8.616;2023-04-03T05:29:56;4.60;99.90
7720;DHT22;3902;49.474;8.616;2023-04-03T05:32:23;4.60;99.90
7720;DHT22;3902;49.474;8.616;2023-04-03T05:34:49;4.60;99.90
7720;DHT22;3902;49.474;8.616;2023-04-03T05:37:15;4.60;99.90
7720;DHT22;3902;49.474;8.616;2023-04-03T05:39:40;4.60;99.90
7720;DHT22;3902;49.474;8.616;2023-04-03T05:42:07;4.60;99.90
7720;DHT22;3902;49.474;8.616;2023-04-03T05:44:33;4.60;99.90
7720;DHT22;3902;49.474;8.616;2023-04-03T05:46:59;4.70;99.90
7720;DHT22;3902;49.474;8.616;2023-04-03T05:49:24;4.70;99.90
7720;DHT22;3902;49.474;8.616;2023-04-03T05:51:50;4.70;99.90
7720;DHT22;3902;49.474;8.616;2023-04-03T05:54:28;4.70;99.90
7720;DHT22;3902;49.474;8.616;2023-04-03T05:56:54;4.70;99.90
7720;DHT22;3902;49.474;8.616;2023-04-03T05:59:20;4.70;99.90
7720;DHT22;3902;49.474;8.616;2023-04-03T06:01:46;4.70;99.90
7720;DHT22;3902;49.474;8.616;2023-04-03T06:04:12;4.70;99.90
7720;DHT22;3902;49.474;8.616;2023-04-03T06:06:53;4.70;99.90
7720;DHT22;3902;49.474;8.616;2023-04-03T06:09:21;4.80;99.90
7720;DHT22;3902;49.474;8.616;2023-04-03T06:11:47;4.80;99.90
7720;DHT22;3902;49.474;8.616;2023-04-03T06:14:13;4.80;99.90
7720;DHT22;3902;49.474;8.616;2023-04-03T06:16:38;4.80;99.90
7720;DHT22;3902;49.474;8.616;2023-04-03T06:19:05;4.80;99.90
7720;DHT22;3902;49.474;8.616;2023-04-03T06:21:31;4.80;99.90
7720;DHT22;3902;49.474;8.616;2023-04-03T06:23:57;4.90;99.90
7720;DHT22;3902;49.474;8.616;2023-04-03T06:26:22;4.90;99.90
7720;DHT22;3902;49.474;8.616;2023-04-03T06:28:48;4.90;99.90
7720;DHT22;3902;49.474;8.616;2023-04-03T06:31:14;5.00;99.90
7720;DHT22;3902;49.474;8.616;2023-04-03T06:33:40;5.00;99.90
7720;DHT22;3902;49.474;8.616;2023-04-03T06:36:07;5.00;99.90
7720;DHT22;3902;49.474;8.616;2023-04-03T06:38:33;5.10;99.90
7720;DHT22;3902;49.474;8.616;2023-04-03T06:40:59;5.10;99.90
7720;DHT22;3902;49.474;8.616;2023-04-03T06:43:25;5.10;99.90
7720;DHT22;3902;49.474;8.616;2023-04-03T06:45:51;5.20;99.90
7720;DHT22;3902;49.474;8.616;2023-04-03T06:48:17;5.20;99.90
7720;DHT22;3902;49.474;8.616;2023-04-03T06:50:42;5.20;99.90
7720;DHT22;3902;49.474;8.616;2023-04-03T06:53:08;5.30;99.90
7720;DHT22;3902;49.474;8.616;2023-04-03T06:55:34;5.40;99.90
7720;DHT22;3902;49.474;8.616;2023-04-03T06:58:00;5.40;99.90
7720;DHT22;3902;49.474;8.616;2023-04-03T07:00:25;5.40;99.90
7720;DHT22;3902;49.474;8.616;2023-04-03T07:02:51;5.50;99.90
7720;DHT22;3902;49.474;8.616;2023-04-03T07:05:17;5.50;99.90
7720;DHT22;3902;49.474;8.616;2023-04-03T07:07:42;5.60;99.90
7720;DHT22;3902;49.474;8.616;2023-04-03T07:10:09;5.60;99.90
7720;DHT22;3902;49.474;8.616;2023-04-03T07:12:35;5.70;99.90
7720;DHT22;3902;49.474;8.616;2023-04-03T07:15:01;5.70;99.90
7720;DHT22;3902;49.474;8.616;2023-04-03T07:17:28;5.80;99.90
7720;DHT22;3902;49.474;8.616;2023-04-03T07:19:53;5.80;99.90
7720;DHT22;3902;49.474;8.616;2023-04-03T07:22:19;5.90;99.90
7720;DHT22;3902;49.474;8.616;2023-04-03T07:24:45;5.90;99.90
7720;DHT22;3902;49.474;8.616;2023-04-03T07:27:11;6.00;99.90
7720;DHT22;3902;49.474;8.616;2023-04-03T07:29:38;6.00;99.90
7720;DHT22;3902;49.474;8.616;2023-04-03T07:32:04;6.10;99.90
7720;DHT22;3902;49.474;8.616;2023-04-03T07:34:31;6.20;99.90
7720;DHT22;3902;49.474;8.616;2023-04-03T07:36:58;6.20;99.90
7720;DHT22;3902;49.474;8.616;2023-04-03T07:39:24;6.20;99.90
7720;DHT22;3902;49.474;8.616;2023-04-03T07:41:50;6.30;99.90
7720;DHT22;3902;49.474;8.616;2023-04-03T07:44:17;6.30;99.90
7720;DHT22;3902;49.474;8.616;2023-04-03T07:46:43;6.40;99.90
7720;DHT22;3902;49.474;8.616;2023-04-03T07:49:09;6.40;99.90
7720;DHT22;3902;49.474;8.616;2023-04-03T07:51:34;6.50;99.90
7720;DHT22;3902;49.474;8.616;2023-04-03T07:54:01;6.50;99.90
7720;DHT22;3902;49.474;8.616;2023-04-03T07:56:26;6.50;99.90
7720;DHT22;3902;49.474;8.616;2023-04-03T07:58:52;6.60;99.90
7720;DHT22;3902;49.474;8.616;2023-04-03T08:01:18;6.60;99.90
7720;DHT22;3902;49.474;8.616;2023-04-03T08:03:44;6.70;99.90
7720;DHT22;3902;49.474;8.616;2023-04-03T08:06:10;6.70;99.90
7720;DHT22;3902;49.474;8.616;2023-04-03T08:08:36;6.70;99.90
7720;DHT22;3902;49.474;8.616;2023-04-03T08:11:02;6.80;99.90
7720;DHT22;3902;49.474;8.616;2023-04-03T08:13:30;6.80;99.90
7720;DHT22;3902;49.474;8.616;2023-04-03T08:15:56;6.90;99.90
7720;DHT22;3902;49.474;8.616;2023-04-03T08:18:24;6.90;99.90
7720;DHT22;3902;49.474;8.616;2023-04-03T08:20:51;7.00;99.90
7720;DHT22;3902;49.474;8.616;2023-04-03T08:23:17;7.00;99.90
7720;DHT22;3902;49.474;8.616;2023-04-03T08:25:44;7.10;99.90
7720;DHT22;3902;49.474;8.616;2023-04-03T08:28:10;7.10;99.90
7720;DHT22;3902;49.474;8.616;2023-04-03T08:30:39;7.20;99.90
7720;DHT22;3902;49.474;8.616;2023-04-03T08:33:06;7.20;99.90
7720;DHT22;3902;49.474;8.616;2023-04-03T08:35:31;7.30;99.90
7720;DHT22;3902;49.474;8.616;2023-04-03T08:37:57;7.30;99.90
7720;DHT22;3902;49.474;8.616;2023-04-03T08:40:23;7.40;99.90
7720;DHT22;3902;49.474;8.616;2023-04-03T08:45:44;7.50;99.90
7720;DHT22;3902;49.474;8.616;2023-04-03T08:50:46;7.60;99.90
7720;DHT22;3902;49.474;8.616;2023-04-03T08:53:19;7.70;99.90
7720;DHT22;3902;49.474;8.616;2023-04-03T08:55:48;7.70;99.90
7720;DHT22;3902;49.474;8.616;2023-04-03T08:58:26;7.80;99.90
7720;DHT22;3902;49.474;8.616;2023-04-03T09:01:05;7.90;99.90
7720;DHT22;3902;49.474;8.616;2023-04-03T09:03:39;8.00;99.90
7720;DHT22;3902;49.474;8.616;2023-04-03T09:06:26;8.10;99.90
7720;DHT22;3902;49.474;8.616;2023-04-03T09:09:33;8.20;99.90
7720;DHT22;3902;49.474;8.616;2023-04-03T09:12:21;8.30;99.90
7720;DHT22;3902;49.474;8.616;2023-04-03T09:22:57;8.70;99.90
7720;DHT22;3902;49.474;8.616;2023-04-03T09:25:27;8.80;99.90
7720;DHT22;3902;49.474;8.616;2023-04-03T09:27:59;8.90;99.90
7720;DHT22;3902;49.474;8.616;2023-04-03T09:30:26;8.90;99.90
7720;DHT22;3902;49.474;8.616;2023-04-03T09:32:56;9.00;99.90
7720;DHT22;3902;49.474;8.616;2023-04-03T09:35:26;9.10;99.90
7720;DHT22;3902;49.474;8.616;2023-04-03T09:37:55;9.20;99.90
7720;DHT22;3902;49.474;8.616;2023-04-03T09:42:57;9.30;99.90
7720;DHT22;3902;49.474;8.616;2023-04-03T09:45:32;9.40;99.90
7720;DHT22;3902;49.474;8.616;2023-04-03T09:48:15;9.50;99.90
7720;DHT22;3902;49.474;8.616;2023-04-03T09:55:55;9.80;99.90
7720;DHT22;3902;49.474;8.616;2023-04-03T09:58:30;9.90;99.90
7720;DHT22;3902;49.474;8.616;2023-04-03T10:00:58;9.90;99.90
7720;DHT22;3902;49.474;8.616;2023-04-03T10:03:33;9.90;99.90
7720;DHT22;3902;49.474;8.616;2023-04-03T10:06:02;9.90;99.90
7720;DHT22;3902;49.474;8.616;2023-04-03T10:08:33;9.90;99.90
7720;DHT22;3902;49.474;8.616;2023-04-03T10:11:17;9.90;99.90
7720;DHT22;3902;49.474;8.616;2023-04-03T10:13:55;10.00;99.90
7720;DHT22;3902;49.474;8.616;2023-04-03T10:16:29;10.00;99.90
7720;DHT22;3902;49.474;8.616;2023-04-03T10:19:24;10.00;99.90
7720;DHT22;3902;49.474;8.616;2023-04-03T10:25:02;10.40;99.90
7720;DHT22;3902;49.474;8.616;2023-04-03T10:30:21;10.70;99.90
7720;DHT22;3902;49.474;8.616;2023-04-03T10:33:01;10.80;99.90
7720;DHT22;3902;49.474;8.616;2023-04-03T10:35:44;10.90;99.90
7720;DHT22;3902;49.474;8.616;2023-04-03T10:38:31;11.00;99.90
7720;DHT22;3902;49.474;8.616;2023-04-03T10:41:04;11.10;99.90
7720;DHT22;3902;49.474;8.616;2023-04-03T10:46:53;11.10;99.90
7720;DHT22;3902;49.474;8.616;2023-04-03T10:52:22;11.20;99.90
7720;DHT22;3902;49.474;8.616;2023-04-03T10:57:40;11.80;99.90
7720;DHT22;3902;49.474;8.616;2023-04-03T11:00:14;12.30;99.90
7720;DHT22;3902;49.474;8.616;2023-04-03T11:02:56;12.90;99.90
7720;DHT22;3902;49.474;8.616;2023-04-03T11:05:48;13.90;99.90
7720;DHT22;3902;49.474;8.616;2023-04-03T11:11:05;15.90;99.90
7720;DHT22;3902;49.474;8.616;2023-04-03T11:13:52;16.40;98.50
7720;DHT22;3902;49.474;8.616;2023-04-03T11:16:24;16.70;97.40
7720;DHT22;3902;49.474;8.616;2023-04-03T11:19:05;16.70;95.90
7720;DHT22;3902;49.474;8.616;2023-04-03T11:21:57;16.50;95.30
7720;DHT22;3902;49.474;8.616;2023-04-03T11:24:30;16.60;95.20
7720;DHT22;3902;49.474;8.616;2023-04-03T11:26:58;16.80;94.70
7720;DHT22;3902;49.474;8.616;2023-04-03T11:29:30;16.80;93.20
7720;DHT22;3902;49.474;8.616;2023-04-03T11:34:49;16.70;93.50
7720;DHT22;3902;49.474;8.616;2023-04-03T11:37:25;16.90;92.90
7720;DHT22;3902;49.474;8.616;2023-04-03T11:40:02;17.00;91.90
7720;DHT22;3902;49.474;8.616;2023-04-03T11:42:42;16.90;90.00
7720;DHT22;3902;49.474;8.616;2023-04-03T11:47:54;16.40;91.60
7720;DHT22;3902;49.474;8.616;2023-04-03T11:50:31;16.40;92.10
7720;DHT22;3902;49.474;8.616;2023-04-03T11:53:28;16.20;90.70
7720;DHT22;3902;49.474;8.616;2023-04-03T11:59:21;15.60;91.00
7720;DHT22;3902;49.474;8.616;2023-04-03T12:01:48;15.20;90.50
7720;DHT22;3902;49.474;8.616;2023-04-03T12:04:15;14.90;90.80
7720;DHT22;3902;49.474;8.616;2023-04-03T12:06:50;14.60;91.90
7720;DHT22;3902;49.474;8.616;2023-04-03T12:11:58;14.10;91.40
7720;DHT22;3902;49.474;8.616;2023-04-03T12:14:25;13.90;91.20
7720;DHT22;3902;49.474;8.616;2023-04-03T12:16:53;13.70;91.20
7720;DHT22;3902;49.474;8.616;2023-04-03T12:19:36;13.50;92.00
7720;DHT22;3902;49.474;8.616;2023-04-03T12:22:08;13.50;92.70
7720;DHT22;3902;49.474;8.616;2023-04-03T12:24:35;13.40;93.20
7720;DHT22;3902;49.474;8.616;2023-04-03T12:36:06;15.20;89.30
7720;DHT22;3902;49.474;8.616;2023-04-03T12:38:46;15.50;89.80
7720;DHT22;3902;49.474;8.616;2023-04-03T12:46:38;15.20;90.10
7720;DHT22;3902;49.474;8.616;2023-04-03T12:49:20;15.00;89.00
7720;DHT22;3902;49.474;8.616;2023-04-03T12:51:48;14.80;90.50
7720;DHT22;3902;49.474;8.616;2023-04-03T12:54:36;14.70;91.10
7720;DHT22;3902;49.474;8.616;2023-04-03T12:57:24;14.40;90.20
7720;DHT22;3902;49.474;8.616;2023-04-03T12:59:50;14.20;90.60
7720;DHT22;3902;49.474;8.616;2023-04-03T13:02:24;14.00;91.20
7720;DHT22;3902;49.474;8.616;2023-04-03T13:04:54;14.00;91.20
7720;DHT22;3902;49.474;8.616;2023-04-03T13:07:30;13.90;91.60
7720;DHT22;3902;49.474;8.616;2023-04-03T13:10:25;13.90;90.90
7720;DHT22;3902;49.474;8.616;2023-04-03T13:15:23;13.80;91.20
7720;DHT22;3902;49.474;8.616;2023-04-03T13:17:50;13.80;90.70
7720;DHT22;3902;49.474;8.616;2023-04-03T13:20:22;13.80;91.00
7720;DHT22;3902;49.474;8.616;2023-04-03T13:22:53;14.00;91.40
7720;DHT22;3902;49.474;8.616;2023-04-03T13:25:23;14.30;91.50
7720;DHT22;3902;49.474;8.616;2023-04-03T13:27:50;14.80;90.50
7720;DHT22;3902;49.474;8.616;2023-04-03T13:30:34;15.70;91.30
7720;DHT22;3902;49.474;8.616;2023-04-03T13:33:03;16.90;89.10
7720;DHT22;3902;49.474;8.616;2023-04-03T13:38:01;19.20;86.10
7720;DHT22;3902;49.474;8.616;2023-04-03T13:40:28;20.10;82.40
7720;DHT22;3902;49.474;8.616;2023-04-03T13:43:13;20.90;72.90
7720;DHT22;3902;49.474;8.616;2023-04-03T13:46:02;21.50;74.20
7720;DHT22;3902;49.474;8.616;2023-04-03T13:48:51;21.90;72.60
7720;DHT22;3902;49.474;8.616;2023-04-03T13:51:27;21.80;70.50
7720;DHT22;3902;49.474;8.616;2023-04-03T13:54:00;21.20;66.80
7720;DHT22;3902;49.474;8.616;2023-04-03T13:56:35;20.80;67.50
7720;DHT22;3902;49.474;8.616;2023-04-03T13:59:23;20.50;68.20
7720;DHT22;3902;49.474;8.616;2023-04-03T14:02:10;20.80;69.20
7720;DHT22;3902;49.474;8.616;2023-04-03T14:07:10;21.70;66.10
7720;DHT22;3902;49.474;8.616;2023-04-03T14:09:36;21.90;65.40
7720;DHT22;3902;49.474;8.616;2023-04-03T14:12:07;22.60;64.40
7720;DHT22;3902;49.474;8.616;2023-04-03T14:14:35;23.10;61.80
7720;DHT22;3902;49.474;8.616;2023-04-03T14:17:03;23.60;60.90
7720;DHT22;3902;49.474;8.616;2023-04-03T14:19:31;23.80;59.40
7720;DHT22;3902;49.474;8.616;2023-04-03T14:22:00;23.70;57.90
7720;DHT22;3902;49.474;8.616;2023-04-03T14:24:26;23.70;58.20
7720;DHT22;3902;49.474;8.616;2023-04-03T14:26:54;23.60;57.20
7720;DHT22;3902;49.474;8.616;2023-04-03T14:29:21;23.50;54.90
7720;DHT22;3902;49.474;8.616;2023-04-03T14:31:48;23.50;56.40
7720;DHT22;3902;49.474;8.616;2023-04-03T14:34:15;23.80;55.70
7720;DHT22;3902;49.474;8.616;2023-04-03T14:36:43;23.80;53.20
7720;DHT22;3902;49.474;8.616;2023-04-03T14:39:17;24.00;55.50
7720;DHT22;3902;49.474;8.616;2023-04-03T14:41:43;23.90;52.20
7720;DHT22;3902;49.474;8.616;2023-04-03T14:44:09;24.20;54.30
7720;DHT22;3902;49.474;8.616;2023-04-03T14:46:37;24.40;53.40
7720;DHT22;3902;49.474;8.616;2023-04-03T14:49:05;24.50;52.70
7720;DHT22;3902;49.474;8.616;2023-04-03T14:51:34;24.70;53.30
7720;DHT22;3902;49.474;8.616;2023-04-03T14:54:00;24.90;51.70
7720;DHT22;3902;49.474;8.616;2023-04-03T14:56:28;25.20;52.30
7720;DHT22;3902;49.474;8.616;2023-04-03T14:58:57;25.30;52.00
7720;DHT22;3902;49.474;8.616;2023-04-03T15:01:24;25.30;48.90
7720;DHT22;3902;49.474;8.616;2023-04-03T15:03:49;25.30;49.60
7720;DHT22;3902;49.474;8.616;2023-04-03T15:06:15;25.30;49.30
7720;DHT22;3902;49.474;8.616;2023-04-03T15:08:42;25.30;49.10
7720;DHT22;3902;49.474;8.616;2023-04-03T15:11:10;25.30;48.00
7720;DHT22;3902;49.474;8.616;2023-04-03T15:13:36;25.20;48.70
7720;DHT22;3902;49.474;8.616;2023-04-03T15:16:02;25.10;47.90
7720;DHT22;3902;49.474;8.616;2023-04-03T15:18:32;24.60;46.70
7720;DHT22;3902;49.474;8.616;2023-04-03T15:20:59;24.30;48.50
7720;DHT22;3902;49.474;8.616;2023-04-03T15:23:25;23.90;48.40
7720;DHT22;3902;49.474;8.616;2023-04-03T15:25:53;23.60;48.90
7720;DHT22;3902;49.474;8.616;2023-04-03T15:28:23;23.20;48.50
7720;DHT22;3902;49.474;8.616;2023-04-03T15:30:50;22.80;49.00
7720;DHT22;3902;49.474;8.616;2023-04-03T15:33:16;22.50;50.20
7720;DHT22;3902;49.474;8.616;2023-04-03T15:35:42;22.00;48.50
7720;DHT22;3902;49.474;8.616;2023-04-03T15:38:08;21.60;50.70
7720;DHT22;3902;49.474;8.616;2023-04-03T15:40:34;21.30;48.40
7720;DHT22;3902;49.474;8.616;2023-04-03T15:43:00;20.90;49.00
7720;DHT22;3902;49.474;8.616;2023-04-03T15:45:28;20.60;51.40
7720;DHT22;3902;49.474;8.616;2023-04-03T15:47:54;20.20;49.10
7720;DHT22;3902;49.474;8.616;2023-04-03T15:50:21;19.90;50.30
7720;DHT22;3902;49.474;8.616;2023-04-03T15:52:48;19.70;50.30
7720;DHT22;3902;49.474;8.616;2023-04-03T15:55:22;19.20;49.90
7720;DHT22;3902;49.474;8.616;2023-04-03T15:57:48;19.00;50.00
7720;DHT22;3902;49.474;8.616;2023-04-03T16:00:14;18.80;51.60
7720;DHT22;3902;49.474;8.616;2023-04-03T16:02:40;18.50;51.80
7720;DHT22;3902;49.474;8.616;2023-04-03T16:05:07;18.30;52.40
7720;DHT22;3902;49.474;8.616;2023-04-03T16:07:33;18.10;53.10
7720;DHT22;3902;49.474;8.616;2023-04-03T16:09:58;17.80;53.70
7720;DHT22;3902;49.474;8.616;2023-04-03T16:12:24;17.60;53.00
7720;DHT22;3902;49.474;8.616;2023-04-03T16:14:49;17.40;52.70
7720;DHT22;3902;49.474;8.616;2023-04-03T16:17:15;17.30;53.30
7720;DHT22;3902;49.474;8.616;2023-04-03T16:19:41;17.10;51.60
7720;DHT22;3902;49.474;8.616;2023-04-03T16:22:06;16.80;52.90
7720;DHT22;3902;49.474;8.616;2023-04-03T16:24:32;16.70;53.40
7720;DHT22;3902;49.474;8.616;2023-04-03T16:26:58;16.50;55.80
7720;DHT22;3902;49.474;8.616;2023-04-03T16:29:23;16.30;55.90
7720;DHT22;3902;49.474;8.616;2023-04-03T16:31:49;16.20;56.40
7720;DHT22;3902;49.474;8.616;2023-04-03T16:34:15;16.00;54.70
7720;DHT22;3902;49.474;8.616;2023-04-03T16:36:41;15.80;54.90
7720;DHT22;3902;49.474;8.616;2023-04-03T16:39:08;15.70;55.90
7720;DHT22;3902;49.474;8.616;2023-04-03T16:41:35;15.40;55.50
7720;DHT22;3902;49.474;8.616;2023-04-03T16:44:01;15.30;55.40
7720;DHT22;3902;49.474;8.616;2023-04-03T16:46:26;15.10;56.00
7720;DHT22;3902;49.474;8.616;2023-04-03T16:48:52;14.90;56.20
7720;DHT22;3902;49.474;8.616;2023-04-03T16:51:18;14.70;57.50
7720;DHT22;3902;49.474;8.616;2023-04-03T16:53:43;14.50;57.60
7720;DHT22;3902;49.474;8.616;2023-04-03T16:56:09;14.40;58.60
7720;DHT22;3902;49.474;8.616;2023-04-03T16:58:35;14.20;58.40
7720;DHT22;3902;49.474;8.616;2023-04-03T17:01:12;14.10;59.90
7720;DHT22;3902;49.474;8.616;2023-04-03T17:03:38;13.90;58.30
7720;DHT22;3902;49.474;8.616;2023-04-03T17:06:04;13.80;58.40
7720;DHT22;3902;49.474;8.616;2023-04-03T17:08:30;13.60;59.40
7720;DHT22;3902;49.474;8.616;2023-04-03T17:10:55;13.40;59.40
7720;DHT22;3902;49.474;8.616;2023-04-03T17:13:21;13.30;58.70
7720;DHT22;3902;49.474;8.616;2023-04-03T17:15:46;13.10;59.00
7720;DHT22;3902;49.474;8.616;2023-04-03T17:18:12;13.00;60.50
7720;DHT22;3902;49.474;8.616;2023-04-03T17:20:37;12.80;60.00
7720;DHT22;3902;49.474;8.616;2023-04-03T17:23:04;12.70;59.20
7720;DHT22;3902;49.474;8.616;2023-04-03T17:25:30;12.70;61.80
7720;DHT22;3902;49.474;8.616;2023-04-03T17:27:55;12.50;62.70
7720;DHT22;3902;49.474;8.616;2023-04-03T17:30:22;12.40;61.10
7720;DHT22;3902;49.474;8.616;2023-04-03T17:32:47;12.20;62.00
7720;DHT22;3902;49.474;8.616;2023-04-03T17:35:13;12.10;61.60
7720;DHT22;3902;49.474;8.616;2023-04-03T17:37:38;12.10;63.20
7720;DHT22;3902;49.474;8.616;2023-04-03T17:40:04;12.10;63.70